Time;durP1;ratioP1;P1;durP2;ratioP2;P2;SDS_P1;SDS_P2;PMS_P1;PMS_P2;Temp;Humidity;BMP_temperature;BMP_pressure;BME280_temperature;BME280_humidity;BME280_pressure;Samples;Min_cycle;Max_cycle;Signal;HPM_P1;HPM_P2
2023/05/24 00:00:36;;;;;;;;;21.00;17.00;;;;;17.19;100.00;99307.97;6279216;20;2837787;-60
2023/05/24 00:03:05;;;;;;;;;16.67;16.00;;;;;17.17;100.00;99304.59;6279421;20;3556645;-60
2023/05/24 00:05:39;;;;;;;;;16.50;16.50;;;;;17.19;100.00;99299.00;6280959;20;2828525;-60
2023/05/24 00:08:09;;;;;;;;;11.60;10.00;;;;;17.11;100.00;99299.72;6305291;20;2794173;-60
2023/05/24 00:10:37;;;;;;;;;14.00;12.67;;;;;17.16;100.00;99300.13;6282853;20;3540918;-60
2023/05/24 00:13:05;;;;;;;;;16.00;14.00;;;;;17.10;100.00;99298.88;6309089;20;2487746;-60
2023/05/24 00:15:33;;;;;;;;;19.67;16.33;;;;;17.28;100.00;99306.28;6283889;20;2835712;-60
2023/05/24 00:18:01;;;;;;;;;21.00;17.00;;;;;17.04;100.00;99299.47;6308983;20;2837869;-60
2023/05/24 00:20:29;;;;;;;;;20.00;17.00;;;;;17.21;100.00;99300.56;6276398;20;2833647;-60
2023/05/24 00:22:58;;;;;;;;;16.50;15.00;;;;;17.22;100.00;99298.69;6280501;20;2820130;-60
2023/05/24 00:25:25;;;;;;;;;11.00;11.00;;;;;17.24;100.00;99296.69;6284803;20;2807679;-60
2023/05/24 00:27:56;;;;;;;;;16.67;11.33;;;;;17.16;100.00;99296.56;6276923;20;3527478;-60
2023/05/24 00:30:24;;;;;;;;;14.67;14.67;;;;;17.09;100.00;99288.19;6278802;20;3533648;-60
2023/05/24 00:32:53;;;;;;;;;17.00;16.00;;;;;17.19;100.00;99283.56;6274906;20;3560769;-60
2023/05/24 00:35:20;;;;;;;;;17.00;17.00;;;;;17.01;100.00;99282.59;6281015;20;2496289;-60
2023/05/24 00:37:48;;;;;;;;;14.33;14.33;;;;;17.06;100.00;99283.03;6280309;20;3531254;-60
2023/05/24 00:40:16;;;;;;;;;14.00;14.00;;;;;17.14;100.00;99277.75;6275347;20;2806568;-60
2023/05/24 00:42:44;;;;;;;;;13.67;11.33;;;;;17.06;100.00;99280.31;6275946;20;3522159;-60
2023/05/24 00:45:13;;;;;;;;;15.00;15.00;;;;;17.10;100.00;99271.75;6305981;20;2813815;-60
2023/05/24 00:47:41;;;;;;;;;19.00;16.00;;;;;17.22;100.00;99256.16;6279186;20;2483612;-60
2023/05/24 00:50:15;;;;;;;;;19.50;17.00;;;;;17.03;100.00;99264.34;6275532;20;2837782;-60
2023/05/24 00:52:44;;;;;;;;;20.00;17.00;;;;;17.06;100.00;99261.31;6280249;20;2487867;-60
2023/05/24 00:55:12;;;;;;;;;20.00;17.50;;;;;16.99;100.00;99263.78;6281336;20;2837833;-60
2023/05/24 00:57:41;;;;;;;;;19.00;17.50;;;;;17.06;100.00;99278.47;6280414;20;2838295;-60
2023/05/24 01:00:10;;;;;;;;;19.00;17.50;;;;;17.01;100.00;99266.31;6279158;20;2836788;-60
2023/05/24 01:02:38;;;;;;;;;20.50;19.00;;;;;16.88;100.00;99267.50;6282388;20;2830531;-60
2023/05/24 01:05:07;;;;;;;;;19.00;14.67;;;;;17.13;100.00;99275.16;6280436;20;3554449;-60
2023/05/24 01:08:16;;;;;;;;;17.75;16.88;;;;;16.97;100.00;99270.34;6337960;20;3572195;-61
2023/05/24 01:11:06;;;;;;;;;16.50;14.50;;;;;16.95;100.00;99266.91;6280361;20;2808790;-60
2023/05/24 01:14:21;;;;;;;;;16.50;16.50;;;;;17.00;100.00;99272.75;6278868;20;2825283;-60
2023/05/24 01:16:57;;;;;;;;;21.00;18.00;;;;;17.00;100.00;99270.06;6281105;20;2840282;-60
2023/05/24 01:19:42;;;;;;;;;19.50;19.00;;;;;17.05;100.00;99267.75;6278736;20;2833594;-60
2023/05/24 01:22:22;;;;;;;;;17.00;16.00;;;;;16.92;100.00;99272.63;6280163;20;2827410;-60
2023/05/24 01:25:13;;;;;;;;;17.00;16.00;;;;;16.97;100.00;99265.78;6284255;20;2825339;-60
2023/05/24 01:27:42;;;;;;;;;19.50;17.50;;;;;16.92;100.00;99259.09;6279735;20;2492014;-60
2023/05/24 01:30:12;;;;;;;;;19.50;18.00;;;;;17.04;100.00;99257.94;6278393;20;2839859;-60
2023/05/24 01:32:41;;;;;;;;;20.00;17.50;;;;;17.05;100.00;99251.50;6280955;20;2830495;-60
2023/05/24 01:35:09;;;;;;;;;18.50;18.50;;;;;17.06;100.00;99259.50;6279393;20;2835742;-60
2023/05/24 01:37:38;;;;;;;;;19.00;19.00;;;;;17.11;100.00;99256.31;6280800;20;2837824;-60
2023/05/24 01:40:08;;;;;;;;;20.00;20.00;;;;;17.09;100.00;99259.19;6280179;20;2494161;-60
2023/05/24 01:43:01;;;;;;;;;19.00;18.00;;;;;17.03;100.00;99258.91;6284230;20;2840030;-60
2023/05/24 01:45:47;;;;;;;;;20.00;17.50;;;;;17.00;100.00;99264.63;6284940;20;2827367;-60
2023/05/24 01:48:28;;;;;;;;;16.00;16.00;;;;;16.99;100.00;99257.50;6276546;20;2819024;-60
2023/05/24 01:51:07;;;;;;;;;18.50;17.50;;;;;16.97;100.00;99259.50;6276001;20;2837788;-60
2023/05/24 01:53:45;;;;;;;;;19.00;19.00;;;;;16.92;100.00;99250.94;6279881;20;3574207;-60
2023/05/24 01:56:16;;;;;;;;;19.00;19.00;;;;;17.01;100.00;99255.47;6272534;20;2831711;-60
2023/05/24 01:58:46;;;;;;;;;20.00;20.00;;;;;16.97;100.00;99259.50;6273104;20;2844043;-60
2023/05/24 02:01:15;;;;;;;;;17.67;17.33;;;;;17.04;100.00;99249.78;6273225;20;2489846;-60
2023/05/24 02:03:43;;;;;;;;;19.00;18.00;;;;;16.87;100.00;99249.50;6313761;20;3571103;-60
2023/05/24 02:06:12;;;;;;;;;23.33;21.67;;;;;16.70;100.00;99247.53;6276467;20;2843012;-60
2023/05/24 02:08:40;;;;;;;;;17.00;17.00;;;;;16.91;100.00;99254.66;6316476;20;3566934;-60
2023/05/24 02:11:08;;;;;;;;;17.00;16.33;;;;;16.94;100.00;99259.81;6281140;20;3556557;-60
2023/05/24 02:13:36;;;;;;;;;18.50;18.50;;;;;16.77;100.00;99259.53;6313435;20;2834703;-60
2023/05/24 02:16:05;;;;;;;;;22.50;21.00;;;;;16.58;100.00;99262.22;6284437;20;2832553;-60
2023/05/24 02:18:33;;;;;;;;;17.50;17.50;;;;;16.72;100.00;99255.50;6281596;20;2834782;-61
2023/05/24 02:21:02;;;;;;;;;22.67;19.00;;;;;16.77;100.00;99259.53;6281013;20;3572205;-60
2023/05/24 02:23:30;;;;;;;;;15.67;15.67;;;;;16.57;100.00;99257.81;6285893;20;3552350;-60
2023/05/24 02:25:58;;;;;;;;;20.00;18.67;;;;;16.49;100.00;99260.38;6315477;20;3563863;-60
2023/05/24 02:28:28;;;;;;;;;21.00;20.00;;;;;16.45;100.00;99257.09;6313786;20;3585674;-60
2023/05/24 02:30:57;;;;;;;;;22.00;19.00;;;;;16.49;100.00;99257.66;6281537;20;2837925;-60
2023/05/24 02:33:25;;;;;;;;;20.50;18.00;;;;;16.51;100.00;99255.66;6281337;20;2837791;-60
2023/05/24 02:35:54;;;;;;;;;20.50;18.00;;;;;16.41;100.00;99253.81;6277822;20;2842019;-60
2023/05/24 02:38:22;;;;;;;;;20.50;18.00;;;;;16.33;100.00;99253.66;6280547;20;2837923;-60
2023/05/24 02:40:51;;;;;;;;;13.67;11.00;;;;;16.30;100.00;99255.78;6281043;20;2792049;-60
2023/05/24 02:43:19;;;;;;;;;20.50;16.50;;;;;16.27;100.00;99259.63;6309842;20;2833737;-60
2023/05/24 02:45:47;;;;;;;;;22.00;17.00;;;;;16.26;100.00;99251.66;6284064;20;2835750;-60
2023/05/24 02:48:15;;;;;;;;;21.50;18.50;;;;;16.00;100.00;99253.03;6280532;20;2835679;-60
2023/05/24 02:50:44;;;;;;;;;17.00;17.00;;;;;16.04;100.00;99255.50;6280641;20;2836855;-60
2023/05/24 02:53:12;;;;;;;;;20.50;18.00;;;;;16.13;100.00;99247.38;6280590;20;2828943;-60
2023/05/24 02:55:42;;;;;;;;;24.00;21.50;;;;;16.04;100.00;99255.50;6282084;20;2839861;-60
2023/05/24 02:58:11;;;;;;;;;19.00;19.00;;;;;16.02;100.00;99253.78;6279081;20;2835808;-60
2023/05/24 03:00:39;;;;;;;;;20.50;20.00;;;;;16.04;100.00;99250.94;6277972;20;2844137;-60
2023/05/24 03:03:07;;;;;;;;;12.33;12.33;;;;;16.15;100.00;99250.78;6280804;20;3515975;-60
2023/05/24 03:05:36;;;;;;;;;19.00;19.00;;;;;16.10;100.00;99249.50;6277996;20;2829447;-60
2023/05/24 03:08:05;;;;;;;;;26.00;22.00;;;;;16.06;100.00;99253.47;6280005;20;2723195;-61
2023/05/24 03:10:33;;;;;;;;;19.50;17.50;;;;;16.14;100.00;99249.09;6306382;20;2839871;-60
2023/05/24 03:13:01;;;;;;;;;16.00;16.00;;;;;16.17;100.00;99261.50;6280532;20;2819014;-60
2023/05/24 03:15:28;;;;;;;;;21.50;19.00;;;;;16.18;100.00;99257.78;6274257;20;2483601;-60
2023/05/24 03:17:57;;;;;;;;;21.00;19.33;;;;;16.17;100.00;99251.53;6282906;20;3579658;-60
2023/05/24 03:20:25;;;;;;;;;29.33;27.67;;;;;16.25;100.00;99253.53;6277426;20;3597157;-60
2023/05/24 03:22:53;;;;;;;;;26.00;23.00;;;;;16.26;100.00;99255.22;6277033;20;3564950;-60
2023/05/24 03:25:22;;;;;;;;;18.50;18.00;;;;;16.29;100.00;99273.06;6279049;20;2833767;-60
2023/05/24 03:27:50;;;;;;;;;21.00;20.50;;;;;16.26;100.00;99273.34;6280836;20;2830466;-60
2023/05/24 03:30:18;;;;;;;;;20.50;17.00;;;;;16.38;100.00;99259.53;6278657;20;2833761;-60
2023/05/24 03:32:46;;;;;;;;;16.50;16.50;;;;;16.31;100.00;99269.22;6277625;20;2832618;-60
2023/05/24 03:35:14;;;;;;;;;21.33;20.33;;;;;16.21;100.00;99262.91;6276571;20;2483706;-60
2023/05/24 03:37:43;;;;;;;;;21.00;18.00;;;;;16.50;100.00;99256.66;6313786;20;3569036;-60
2023/05/24 03:40:11;;;;;;;;;19.50;16.00;;;;;16.54;100.00;99266.22;6277883;20;2825266;-60
2023/05/24 03:42:39;;;;;;;;;15.00;15.00;;;;;16.54;100.00;99258.94;6276792;20;2494069;-60
2023/05/24 03:45:08;;;;;;;;;17.50;17.50;;;;;16.58;100.00;99260.34;6280299;20;2835730;-60
2023/05/24 03:47:36;;;;;;;;;15.33;15.33;;;;;16.54;100.00;99266.22;6279784;20;3540906;-60
2023/05/24 03:50:05;;;;;;;;;19.50;16.50;;;;;16.45;100.00;99265.22;6275935;20;2828440;-60
2023/05/24 03:52:33;;;;;;;;;19.00;18.00;;;;;16.52;100.00;99271.78;6278870;20;2837772;-60
2023/05/24 03:55:00;;;;;;;;;18.00;17.00;;;;;16.61;100.00;99270.06;6274454;20;2483681;-60
2023/05/24 03:57:29;;;;;;;;;17.50;16.50;;;;;16.59;100.00;99266.66;6280516;20;2830602;-60
2023/05/24 03:59:59;;;;;;;;;14.50;14.50;;;;;16.66;100.00;99268.63;6270656;20;2804451;-59
2023/05/24 04:02:27;;;;;;;;;17.50;15.00;;;;;16.65;100.00;99272.34;6274984;20;2818148;-59
2023/05/24 04:04:56;;;;;;;;;20.00;18.00;;;;;16.71;100.00;99270.91;6268865;20;2837748;-60
2023/05/24 04:07:24;;;;;;;;;17.00;16.00;;;;;16.75;100.00;99277.78;6272515;20;2823218;-59
2023/05/24 04:09:52;;;;;;;;;21.00;20.50;;;;;16.77;100.00;99274.91;6278633;20;2846354;-60
2023/05/24 04:12:21;;;;;;;;;20.50;19.50;;;;;16.93;100.00;99280.66;6273897;20;2830460;-60
2023/05/24 04:14:48;;;;;;;;;16.50;16.00;;;;;16.97;100.00;99278.50;6281738;20;2496165;-60
2023/05/24 04:17:15;;;;;;;;;15.00;15.00;;;;;17.01;100.00;99282.59;6283353;20;2487747;-60
2023/05/24 04:19:45;;;;;;;;;18.67;16.67;;;;;16.99;100.00;99290.06;6278259;20;3563813;-60
2023/05/24 04:22:13;;;;;;;;;19.00;14.00;;;;;17.00;100.00;99291.75;6268894;20;2483653;-59
2023/05/24 04:24:41;;;;;;;;;18.00;18.00;;;;;17.00;100.00;99294.47;6272176;20;2833640;-60
2023/05/24 04:27:09;;;;;;;;;14.00;14.00;;;;;17.06;100.00;99292.03;6264094;20;3523415;-60
2023/05/24 04:29:41;;;;;;;;;19.00;18.00;;;;;16.96;100.00;99290.34;6265881;20;2844092;-60
2023/05/24 04:32:09;;;;;;;;;18.00;18.00;;;;;17.16;100.00;99297.44;6284678;20;2838206;-60
2023/05/24 04:34:41;;;;;;;;;18.00;17.00;;;;;17.14;100.00;99304.88;6285418;20;2835769;-60
2023/05/24 04:37:09;;;;;;;;;19.50;18.00;;;;;17.00;100.00;99303.44;6285019;20;2827444;-60
2023/05/24 04:39:38;;;;;;;;;24.50;21.50;;;;;17.31;100.00;99301.38;6283052;20;2844129;-60
2023/05/24 04:42:06;;;;;;;;;21.50;18.50;;;;;17.43;100.00;99301.22;6280814;20;2835888;-60
2023/05/24 04:44:35;;;;;;;;;21.00;19.00;;;;;17.57;100.00;99306.19;6284760;20;2839003;-60
2023/05/24 04:47:04;;;;;;;;;26.00;22.67;;;;;17.70;100.00;99312.13;6282020;20;2845100;-59
2023/05/24 04:49:32;;;;;;;;;25.67;22.67;;;;;17.66;100.00;99315.28;6311025;20;3576495;-60
2023/05/24 04:52:00;;;;;;;;;21.50;19.50;;;;;17.84;100.00;99312.66;6280116;20;2834715;-59
2023/05/24 04:54:29;;;;;;;;;22.67;21.00;;;;;17.91;100.00;99321.94;6284752;20;3572171;-60
2023/05/24 04:56:57;;;;;;;;;21.33;20.67;;;;;17.80;100.00;99319.38;6284450;20;3582586;-61
2023/05/24 04:59:25;;;;;;;;;24.00;21.00;;;;;17.76;100.00;99319.66;6281851;20;2834767;-62
2023/05/24 05:01:53;;;;;;;;;24.67;21.67;;;;;17.77;100.00;99310.53;6283484;20;3565416;-61
2023/05/24 05:04:22;;;;;;;;;25.00;20.33;;;;;17.84;100.00;99312.66;6285704;20;3594121;-61
2023/05/24 05:06:50;;;;;;;;;22.00;22.00;;;;;17.77;100.00;99317.78;6281430;20;2844140;-61
2023/05/24 05:09:18;;;;;;;;;27.67;22.33;;;;;17.63;100.00;99313.72;6286626;20;3587780;-62
2023/05/24 05:11:47;;;;;;;;;25.00;22.00;;;;;17.54;100.00;99317.34;6282720;20;2840912;-61
2023/05/24 05:14:15;;;;;;;;;19.33;19.33;;;;;17.51;100.00;99328.50;6284476;20;3559613;-61
2023/05/24 05:16:45;;;;;;;;;28.33;24.67;;;;;17.47;100.00;99327.06;6305758;20;3594080;-61
2023/05/24 05:19:13;;;;;;;;;25.00;24.33;;;;;17.67;100.00;99327.88;6285305;20;3583636;-62
2023/05/24 05:21:41;;;;;;;;;20.33;20.33;;;;;18.10;100.00;99338.13;6284588;20;3578453;-62
2023/05/24 05:24:09;;;;;;;;;25.00;25.00;;;;;18.10;100.00;99335.41;6284485;20;3587875;-61
2023/05/24 05:26:38;;;;;;;;;37.33;31.67;;;;;18.28;100.00;99335.44;6283841;20;3596154;-62
2023/05/24 05:29:06;;;;;;;;;25.00;22.00;;;;;18.55;100.00;99333.69;6284130;20;3583600;-61
2023/05/24 05:31:34;;;;;;;;;24.67;23.67;;;;;18.71;100.00;99341.16;6291340;20;3561729;-63
2023/05/24 05:34:02;;;;;;;;;22.33;20.00;;;;;18.55;100.00;99342.72;6284076;20;3581576;-62
2023/05/24 05:36:31;;;;;;;;;23.00;18.50;;;;;18.50;100.00;99336.88;6284188;20;2841948;-62
2023/05/24 05:38:59;;;;;;;;;24.00;20.33;;;;;19.06;100.00;99335.75;6283882;20;2839908;-62
2023/05/24 05:41:27;;;;;;;;;27.67;22.67;;;;;19.10;100.00;99340.88;6319592;20;3580527;-62
2023/05/24 05:43:55;;;;;;;;;21.67;21.67;;;;;19.13;100.00;99338.69;6284554;20;3575297;-62
2023/05/24 05:46:24;;;;;;;;;21.50;18.50;;;;;19.30;100.00;99339.69;6281299;20;2840904;-63
2023/05/24 05:48:52;;;;;;;;;20.33;20.33;;;;;19.16;100.00;99342.94;6285718;20;3572675;-63
2023/05/24 05:51:21;;;;;;;;;24.00;24.00;;;;;19.18;100.00;99346.38;6281497;20;2844142;-62
2023/05/24 05:53:50;;;;;;;;;26.00;24.67;;;;;18.96;100.00;99354.03;6311620;20;2836934;-62
2023/05/24 05:56:18;;;;;;;;;25.33;24.00;;;;;19.00;100.00;99344.53;6315890;20;3591987;-63
2023/05/24 05:58:46;;;;;;;;;21.67;21.67;;;;;19.05;100.00;99350.34;6284109;20;3583567;-63
2023/05/24 06:01:15;;;;;;;;;24.33;23.33;;;;;19.37;100.00;99359.78;6286299;20;3578502;-61
2023/05/24 06:03:43;;;;;;;;;23.00;23.00;;;;;19.37;100.00;99350.78;6281824;20;3568057;-62
2023/05/24 06:06:13;;;;;;;;;23.67;21.00;;;;;19.42;99.97;99357.44;6282063;20;2846383;-61
2023/05/24 06:08:41;;;;;;;;;22.50;19.00;;;;;20.00;97.72;99360.56;6301524;20;2837853;-63
2023/05/24 06:11:10;;;;;;;;;24.33;21.67;;;;;20.54;95.22;99361.13;6275933;20;2834698;-64
2023/05/24 06:13:38;;;;;;;;;23.00;20.67;;;;;20.36;94.70;99361.22;6317756;20;3578418;-61
2023/05/24 06:16:07;;;;;;;;;23.33;22.00;;;;;20.48;94.65;99359.03;6282189;20;3585816;-63
2023/05/24 06:18:35;;;;;;;;;21.00;20.00;;;;;20.71;93.42;99368.31;6301311;20;3579531;-61
2023/05/24 06:21:05;;;;;;;;;26.33;22.33;;;;;20.91;94.16;99366.16;6284647;20;2848285;-64
2023/05/24 06:23:33;;;;;;;;;23.00;19.67;;;;;20.67;92.32;99371.53;6308537;20;3580909;-60
2023/05/24 06:26:02;;;;;;;;;21.33;19.67;;;;;20.57;93.41;99374.44;6285805;20;3581561;-64
2023/05/24 06:28:30;;;;;;;;;21.00;21.00;;;;;21.06;91.51;99369.03;6282610;20;3583625;-63
2023/05/24 06:30:58;;;;;;;;;23.67;21.33;;;;;20.79;92.86;99381.97;6287003;20;3576298;-61
2023/05/24 06:33:26;;;;;;;;;21.67;19.00;;;;;20.61;93.01;99378.53;6284046;20;3572203;-64
2023/05/24 06:35:54;;;;;;;;;19.67;18.33;;;;;20.78;93.37;99379.44;6285476;20;3566091;-64
2023/05/24 06:38:23;;;;;;;;;19.33;19.33;;;;;20.54;93.25;99392.00;6283500;20;3563838;-64
2023/05/24 06:40:51;;;;;;;;;24.00;22.50;;;;;20.41;93.88;99391.56;6309497;20;2823284;-61
2023/05/24 06:43:19;;;;;;;;;17.33;17.00;;;;;21.08;91.27;99391.56;6285887;20;3569220;-64
2023/05/24 06:45:47;;;;;;;;;23.00;20.67;;;;;21.03;90.89;99399.41;6282007;20;3575344;-63
2023/05/24 06:48:16;;;;;;;;;19.33;19.33;;;;;21.81;87.06;99403.53;6279371;20;3569105;-64
2023/05/24 06:50:44;;;;;;;;;21.67;20.33;;;;;21.55;88.71;99406.47;6279523;20;3566954;-61
2023/05/24 06:53:14;;;;;;;;;19.00;19.00;;;;;21.45;88.98;99395.69;6281359;20;3569044;-61
2023/05/24 06:55:42;;;;;;;;;19.67;19.33;;;;;20.86;90.50;99404.00;6284200;20;3563843;-62
2023/05/24 06:58:13;;;;;;;;;16.00;16.00;;;;;21.12;90.18;99397.56;6280776;20;3551466;-61
2023/05/24 07:00:42;;;;;;;;;22.00;17.00;;;;;21.31;88.48;99404.56;6313027;20;2846246;-62
2023/05/24 07:03:12;;;;;;;;;17.33;17.33;;;;;21.50;86.88;99401.50;6310860;20;3569162;-62
2023/05/24 07:05:40;;;;;;;;;17.00;16.33;;;;;21.57;87.17;99405.28;6285559;20;3563929;-61
2023/05/24 07:08:08;;;;;;;;;18.00;18.00;;;;;21.81;85.28;99404.38;6281991;20;3574201;-61
2023/05/24 07:10:37;;;;;;;;;17.50;16.50;;;;;22.40;84.65;99414.13;6282032;20;2828629;-61
2023/05/24 07:13:05;;;;;;;;;20.00;18.33;;;;;21.45;85.95;99412.09;6282610;20;3571218;-61
2023/05/24 07:15:33;;;;;;;;;20.33;18.67;;;;;21.08;89.30;99418.88;6281383;20;3577340;-62
2023/05/24 07:18:02;;;;;;;;;24.00;20.00;;;;;20.71;90.63;99417.44;6281395;20;2835739;-61
2023/05/24 07:20:30;;;;;;;;;22.00;19.67;;;;;21.42;89.21;99415.16;6283780;20;3562898;-62
2023/05/24 07:23:00;;;;;;;;;24.50;22.00;;;;;22.94;82.88;99423.28;6283581;20;3514995;-61
2023/05/24 07:25:28;;;;;;;;;19.00;19.00;;;;;23.20;78.94;99427.59;6314528;20;3567964;-61
2023/05/24 07:27:56;;;;;;;;;14.50;14.50;;;;;22.83;78.97;99431.03;6283132;20;2798228;-61
2023/05/24 07:30:26;;;;;;;;;17.00;17.00;;;;;22.73;78.75;99429.38;6281109;20;2837874;-60
2023/05/24 07:32:59;;;;;;;;;17.00;15.50;;;;;23.31;76.26;99418.94;6314865;20;2824294;-62
2023/05/24 07:35:29;;;;;;;;;18.67;17.00;;;;;23.59;74.08;99426.56;6282902;20;3568153;-61
2023/05/24 07:37:58;;;;;;;;;17.00;16.00;;;;;23.88;74.49;99431.31;6283069;20;3560055;-61
2023/05/24 07:40:26;;;;;;;;;14.67;14.67;;;;;23.66;73.28;99422.06;6313826;20;3532675;-61
2023/05/24 07:42:54;;;;;;;;;14.50;14.00;;;;;24.59;71.92;99439.94;6313607;20;2800395;-62
2023/05/24 07:45:23;;;;;;;;;13.00;13.00;;;;;24.59;70.12;99439.94;6281767;20;2801448;-61
2023/05/24 07:47:51;;;;;;;;;17.00;17.00;;;;;23.35;74.98;99442.19;6274472;20;2832677;-62
2023/05/24 07:50:23;;;;;;;;;18.00;16.00;;;;;24.23;73.14;99445.34;6278189;20;3554562;-61
2023/05/24 07:52:52;;;;;;;;;13.00;13.00;;;;;24.20;71.28;99457.56;6276512;20;3521262;-62
2023/05/24 07:55:20;;;;;;;;;15.33;14.00;;;;;23.49;73.13;99443.28;6274145;20;3530515;-62
2023/05/24 07:57:48;;;;;;;;;16.00;14.50;;;;;23.48;72.55;99451.69;6280030;20;2808099;-61
2023/05/24 08:00:18;;;;;;;;;14.00;14.00;;;;;24.83;71.19;99459.91;6275003;20;2790946;-61
2023/05/24 08:02:47;;;;;;;;;15.50;15.50;;;;;24.00;71.18;99453.66;6276641;20;2810835;-64
2023/05/24 08:05:15;;;;;;;;;15.33;14.00;;;;;23.05;74.60;99456.78;6287649;20;3521115;-62
2023/05/24 08:07:44;;;;;;;;;16.67;14.00;;;;;22.48;77.34;99453.25;6313868;20;3537793;-63
2023/05/24 08:10:12;;;;;;;;;15.67;15.67;;;;;22.41;80.31;99459.59;6312805;20;3534696;-64
2023/05/24 08:12:41;;;;;;;;;14.00;14.00;;;;;23.86;73.84;99458.06;6311753;20;2483858;-61
2023/05/24 08:15:10;;;;;;;;;16.00;15.00;;;;;23.92;70.95;99459.22;6312456;20;2798390;-62
2023/05/24 08:17:39;;;;;;;;;13.33;12.00;;;;;23.51;71.64;99456.78;6279949;20;3525448;-62
2023/05/24 08:20:08;;;;;;;;;15.00;14.00;;;;;23.73;71.43;99461.44;6281467;20;3537876;-63
2023/05/24 08:22:36;;;;;;;;;13.00;13.00;;;;;23.09;73.45;99460.84;6312213;20;2483618;-62
2023/05/24 08:25:05;;;;;;;;;16.50;14.50;;;;;22.74;76.02;99460.34;6308894;20;2811718;-63
2023/05/24 08:27:34;;;;;;;;;13.33;13.33;;;;;23.27;75.60;99460.56;6281496;20;3526411;-62
2023/05/24 08:30:03;;;;;;;;;12.00;12.00;;;;;23.90;73.21;99472.25;6281637;20;2487932;-62
2023/05/24 08:32:31;;;;;;;;;14.67;14.67;;;;;23.36;74.84;99462.25;6316386;20;3535948;-62
2023/05/24 08:34:59;;;;;;;;;17.00;16.00;;;;;23.92;74.48;99470.19;6313074;20;2826297;-61
2023/05/24 08:37:46;;;;;;;;;15.00;15.00;;;;;24.46;69.30;99469.97;6284691;20;2485700;-62
2023/05/24 08:40:15;;;;;;;;;12.67;12.67;;;;;25.41;64.35;99477.31;6304300;20;2487869;-62
2023/05/24 08:42:45;;;;;;;;;13.00;13.00;;;;;25.39;66.22;99473.91;6314749;20;3547265;-62
2023/05/24 08:45:14;;;;;;;;;14.00;13.00;;;;;25.12;65.21;99472.72;6318271;20;2483650;-62
2023/05/24 08:47:44;;;;;;;;;14.00;12.67;;;;;25.41;65.13;99488.31;6312087;20;2485778;-62
2023/05/24 08:50:13;;;;;;;;;12.00;10.67;;;;;25.18;64.68;99488.47;6309356;20;3511760;-62
2023/05/24 08:52:44;;;;;;;;;7.80;7.80;;;;;25.49;63.84;99485.44;6334877;20;2746274;-63
2023/05/24 08:55:14;;;;;;;;;13.00;13.00;;;;;24.08;68.10;99475.50;6282656;20;3522383;-62
2023/05/24 08:57:44;;;;;;;;;13.67;13.67;;;;;23.72;69.11;99475.31;6310576;20;2483722;-62
2023/05/24 09:00:13;;;;;;;;;16.33;14.00;;;;;23.52;72.07;99480.44;6312768;20;2496296;-62
2023/05/24 09:02:44;;;;;;;;;13.33;13.33;;;;;23.48;70.90;99479.94;6313754;20;3517063;-63
2023/05/24 09:05:15;;;;;;;;;12.67;12.67;;;;;23.21;71.14;99478.59;6309687;20;2483637;-63
2023/05/24 09:07:45;;;;;;;;;15.67;14.00;;;;;23.04;73.44;99487.94;6312058;20;2483776;-63
2023/05/24 09:10:14;;;;;;;;;15.67;15.33;;;;;23.26;71.90;99494.50;6313961;20;3546133;-63
2023/05/24 09:12:51;;;;;;;;;15.00;15.00;;;;;23.52;70.83;99485.91;6313451;20;3530541;-62
2023/05/24 09:15:19;;;;;;;;;11.00;11.00;;;;;24.81;67.17;99494.97;6317390;20;2800311;-63
2023/05/24 09:17:48;;;;;;;;;19.33;17.67;;;;;24.97;64.85;99497.50;6282686;20;2839957;-62
2023/05/24 09:20:17;;;;;;;;;14.00;14.00;;;;;25.02;65.56;99497.78;6314301;20;2483636;-62
2023/05/24 09:22:52;;;;;;;;;13.67;13.00;;;;;25.68;62.90;99494.06;6319468;20;2487901;-62
2023/05/24 09:25:20;;;;;;;;;18.33;15.00;;;;;25.85;64.76;99490.00;6315090;20;2483744;-63
2023/05/24 09:27:52;;;;;;;;;10.67;10.67;;;;;26.21;60.72;99489.03;6320031;20;3512845;-62
2023/05/24 09:30:21;;;;;;;;;14.00;14.00;;;;;25.14;63.06;99484.38;6313689;20;3535160;-62
2023/05/24 09:32:58;;;;;;;;;19.00;17.00;;;;;25.81;62.49;99495.03;6284728;20;2836149;-62
2023/05/24 09:35:27;;;;;;;;;15.50;15.50;;;;;25.71;61.06;99490.94;6316328;20;2821122;-64
2023/05/24 09:37:58;;;;;;;;;16.33;16.33;;;;;24.75;64.33;99494.69;6285553;20;2483637;-62
2023/05/24 09:40:28;;;;;;;;;15.33;15.33;;;;;24.83;64.69;99493.72;6320426;20;3552337;-62
2023/05/24 09:43:08;;;;;;;;;16.00;15.67;;;;;24.29;66.84;99489.34;6319364;20;3552487;-62
2023/05/24 09:45:48;;;;;;;;;16.00;16.00;;;;;23.83;68.06;99485.88;6281463;20;2827368;-63
2023/05/24 09:48:16;;;;;;;;;23.67;20.33;;;;;24.12;69.03;99481.47;6287245;20;3578485;-62
2023/05/24 09:51:05;;;;;;;;;17.00;17.00;;;;;24.58;65.78;99481.34;6286243;20;3577437;-62
2023/05/24 09:53:35;;;;;;;;;16.00;16.00;;;;;24.60;67.00;99485.59;6284330;20;3561182;-63
2023/05/24 09:56:05;;;;;;;;;16.00;16.00;;;;;25.29;65.30;99487.13;6283396;20;2820379;-64
2023/05/24 09:58:35;;;;;;;;;16.00;13.50;;;;;26.09;61.58;99488.72;6284728;20;2816959;-62
2023/05/24 10:01:09;;;;;;;;;13.00;11.00;;;;;26.29;60.68;99486.13;6283948;20;3513865;-63
2023/05/24 10:03:38;;;;;;;;;16.00;15.50;;;;;25.82;61.74;99495.88;6280928;20;2818024;-63
2023/05/24 10:06:06;;;;;;;;;17.00;17.00;;;;;25.93;63.17;99484.38;6285841;20;2823603;-63
2023/05/24 10:08:35;;;;;;;;;18.00;17.00;;;;;25.91;60.66;99491.13;6286998;20;3573333;-63
2023/05/24 10:11:04;;;;;;;;;15.00;15.00;;;;;25.25;65.24;99488.53;6283297;20;2804707;-63
2023/05/24 10:13:35;;;;;;;;;11.67;11.67;;;;;24.35;67.22;99486.88;6284242;20;3507641;-64
2023/05/24 10:16:03;;;;;;;;;14.00;12.00;;;;;24.08;67.70;99486.47;6284160;20;2809823;-63
2023/05/24 10:18:32;;;;;;;;;16.00;14.67;;;;;23.90;71.15;99488.72;6284839;20;3546266;-64
2023/05/24 10:21:07;;;;;;;;;19.00;15.00;;;;;23.94;68.42;99501.03;6285314;20;2491913;-64
2023/05/24 10:23:43;;;;;;;;;16.00;15.50;;;;;24.09;69.45;99490.91;6315232;20;2814883;-63
2023/05/24 10:26:13;;;;;;;;;19.00;19.00;;;;;24.69;66.69;99500.91;6281820;20;2836804;-63
2023/05/24 10:28:47;;;;;;;;;16.50;16.50;;;;;25.68;63.76;99499.56;6284226;20;2824309;-63
2023/05/24 10:31:27;;;;;;;;;18.33;15.33;;;;;26.14;62.23;99499.13;6285919;20;3553480;-64
2023/05/24 10:33:59;;;;;;;;;18.67;18.67;;;;;26.27;61.21;99499.25;6283337;20;3563817;-64
2023/05/24 10:36:38;;;;;;;;;15.50;14.50;;;;;25.32;65.29;99489.47;6273568;20;2813038;-65
2023/05/24 10:39:11;;;;;;;;;17.00;15.33;;;;;24.98;65.60;99493.69;6285089;20;2483642;-64
2023/05/24 10:41:43;;;;;;;;;16.00;14.00;;;;;24.22;66.74;99487.53;6314607;20;2810753;-66
2023/05/24 10:44:13;;;;;;;;;19.00;19.00;;;;;24.22;67.86;99493.88;6284068;20;3581563;-64
2023/05/24 10:47:14;;;;;;;;;17.67;16.33;;;;;23.94;68.26;99482.69;6279735;20;3556544;-64
2023/05/24 10:49:57;;;;;;;;;17.00;15.50;;;;;23.74;73.07;99482.34;6280682;20;2827402;-65
2023/05/24 10:52:35;;;;;;;;;20.33;19.33;;;;;23.49;71.73;99492.63;6281087;20;2831532;-64
2023/05/24 10:55:06;;;;;;;;;21.00;20.00;;;;;23.55;72.27;99491.88;6319652;20;3570104;-64
2023/05/24 10:57:37;;;;;;;;;19.67;19.00;;;;;23.49;71.91;99489.03;6286203;20;3570144;-64
2023/05/24 11:00:26;;;;;;;;;18.33;16.67;;;;;23.56;71.11;99492.72;6282874;20;3574249;-64
2023/05/24 11:03:08;;;;;;;;;18.00;18.00;;;;;23.76;72.16;99498.59;6283617;20;3578435;-63
2023/05/24 11:05:45;;;;;;;;;21.00;19.67;;;;;24.14;71.77;99499.44;6285509;20;3572117;-63
2023/05/24 11:08:34;;;;;;;;;17.33;17.33;;;;;24.17;69.03;99493.59;6281986;20;3560742;-64
2023/05/24 11:11:13;;;;;;;;;19.33;17.00;;;;;25.25;62.71;99494.91;6278790;20;2835750;-63